Time;durP1;ratioP1;P1;durP2;ratioP2;P2;SDS_P1;SDS_P2;PMS_P1;PMS_P2;Temp;Humidity;BMP_temperature;BMP_pressure;BME280_temperature;BME280_humidity;BME280_pressure;Samples;Min_cycle;Max_cycle;Signal;HPM_P1;HPM_P2
2023/07/28 04:53:05;;;;;;;22.27;8.70;;;;;;;;;;5031842;28;20423;-68
2023/07/28 04:55:32;;;;;;;23.75;7.95;;;;;;;;;;5001039;28;20045;-68
2023/07/28 04:59:09;;;;;;;23.77;8.98;;;;;;;;;;5091755;27;20294;-68
2023/07/28 05:01:36;;;;;;;27.55;9.38;;;;;;;;;;5078382;28;20093;-69
2023/07/28 05:04:03;;;;;;;27.33;9.98;;;;;;;;;;5033471;28;20053;-69
2023/07/28 05:06:30;;;;;;;31.65;10.85;;;;;;;;;;5025232;28;20052;-70
2023/07/28 05:08:57;;;;;;;25.23;9.82;;;;;;;;;;5031836;28;20057;-69
2023/07/28 05:11:23;;;;;;;28.55;10.52;;;;;;;;;;5033604;28;20061;-68
2023/07/28 05:13:50;;;;;;;38.08;15.18;;;;;;;;;;5028469;28;20049;-69
2023/07/28 05:16:19;;;;;;;40.42;16.30;;;;;;;;;;5032207;28;20053;-70
2023/07/28 05:18:46;;;;;;;35.63;14.13;;;;;;;;;;5025903;28;20060;-68
2023/07/28 05:21:12;;;;;;;27.52;10.90;;;;;;;;;;5032625;28;20091;-69
2023/07/28 05:23:39;;;;;;;24.48;9.48;;;;;;;;;;5027342;28;20053;-69
2023/07/28 05:26:06;;;;;;;21.70;9.57;;;;;;;;;;5032335;28;20061;-69
2023/07/28 05:28:36;;;;;;;25.52;9.77;;;;;;;;;;5024902;28;20095;-69
2023/07/28 05:31:06;;;;;;;24.75;10.02;;;;;;;;;;5034371;28;20057;-69
2023/07/28 05:33:35;;;;;;;28.73;10.13;;;;;;;;;;5009919;28;20139;-68
2023/07/28 05:36:02;;;;;;;24.88;9.00;;;;;;;;;;5026588;28;20085;-70
2023/07/28 05:38:29;;;;;;;22.00;8.90;;;;;;;;;;5020336;28;20049;-71
2023/07/28 05:41:00;;;;;;;21.92;8.95;;;;;;;;;;5030004;28;20354;-71
2023/07/28 05:43:28;;;;;;;23.92;10.05;;;;;;;;;;5026616;28;20049;-71
2023/07/28 05:45:55;;;;;;;25.48;9.63;;;;;;;;;;5033480;28;20093;-70
2023/07/28 05:48:22;;;;;;;21.95;9.05;;;;;;;;;;5030011;28;20048;-71
2023/07/28 05:50:51;;;;;;;21.17;8.90;;;;;;;;;;5030972;28;20053;-70
2023/07/28 05:53:18;;;;;;;25.58;9.75;;;;;;;;;;5027505;28;20053;-70
2023/07/28 05:55:45;;;;;;;22.77;9.45;;;;;;;;;;5034084;28;20119;-70
2023/07/28 05:58:12;;;;;;;20.45;9.00;;;;;;;;;;5034410;28;20049;-70
2023/07/28 06:00:40;;;;;;;25.40;8.82;;;;;;;;;;5025164;28;20317;-69
2023/07/28 06:03:07;;;;;;;21.77;9.70;;;;;;;;;;5002169;28;20053;-69
2023/07/28 06:05:34;;;;;;;23.48;8.68;;;;;;;;;;5021119;28;20137;-69
2023/07/28 06:08:02;;;;;;;19.33;8.70;;;;;;;;;;5030182;28;20060;-69
2023/07/28 06:10:29;;;;;;;23.23;9.35;;;;;;;;;;4994047;28;20056;-69
2023/07/28 06:12:56;;;;;;;24.75;9.30;;;;;;;;;;4997975;28;20140;-69
2023/07/28 06:15:22;;;;;;;27.40;9.73;;;;;;;;;;5020110;28;20081;-70
2023/07/28 06:17:50;;;;;;;21.35;8.45;;;;;;;;;;5022025;28;20057;-70
2023/07/28 06:20:18;;;;;;;20.05;9.10;;;;;;;;;;5019486;28;20045;-71
2023/07/28 06:22:45;;;;;;;18.95;9.05;;;;;;;;;;5012896;28;20061;-70
2023/07/28 06:25:14;;;;;;;23.42;9.25;;;;;;;;;;5020863;28;20099;-69
2023/07/28 06:27:42;;;;;;;18.73;8.70;;;;;;;;;;5022125;28;20095;-69
2023/07/28 06:30:10;;;;;;;;;;;;;;;;;;5025613;28;20050;-70
2023/07/28 06:32:36;;;;;;;20.73;8.85;;;;;;;;;;5023844;28;19952;-69
2023/07/28 06:35:03;;;;;;;21.10;8.32;;;;;;;;;;5054504;28;20072;-70
2023/07/28 06:37:30;;;;;;;19.85;9.40;;;;;;;;;;5020829;28;20045;-70
2023/07/28 06:39:57;;;;;;;18.00;8.88;;;;;;;;;;5037158;28;20061;-70
2023/07/28 06:42:26;;;;;;;21.95;9.05;;;;;;;;;;4993591;28;20115;-70
2023/07/28 06:44:53;;;;;;;27.13;13.43;;;;;;;;;;5020188;28;20046;-70
2023/07/28 06:47:20;;;;;;;24.13;9.75;;;;;;;;;;5020296;28;20125;-70
2023/07/28 06:49:47;;;;;;;21.70;9.43;;;;;;;;;;5019780;28;20071;-69
2023/07/28 06:52:14;;;;;;;30.65;10.15;;;;;;;;;;5015916;28;20080;-71
2023/07/28 06:54:41;;;;;;;22.63;9.43;;;;;;;;;;5014168;28;20107;-70
2023/07/28 06:57:10;;;;;;;23.35;9.10;;;;;;;;;;5020539;28;20067;-70
2023/07/28 06:59:38;;;;;;;20.55;8.63;;;;;;;;;;5019568;28;20052;-70
2023/07/28 07:02:06;;;;;;;27.60;8.20;;;;;;;;;;5011134;28;20050;-71
2023/07/28 07:04:33;;;;;;;23.60;8.85;;;;;;;;;;5044880;28;20053;-71
2023/07/28 07:07:00;;;;;;;23.35;9.85;;;;;;;;;;5033118;28;20046;-70
2023/07/28 07:09:27;;;;;;;35.45;17.75;;;;;;;;;;5033057;28;20053;-70
2023/07/28 07:11:54;;;;;;;33.08;13.25;;;;;;;;;;5034212;28;20065;-71
2023/07/28 07:14:21;;;;;;;23.23;10.15;;;;;;;;;;5025846;28;20072;-68
2023/07/28 07:16:52;;;;;;;16.77;8.23;;;;;;;;;;5027614;28;21015;-69
2023/07/28 07:19:19;;;;;;;24.02;9.55;;;;;;;;;;5024761;28;20080;-69
2023/07/28 07:21:47;;;;;;;23.98;9.93;;;;;;;;;;5019771;28;20084;-70
2023/07/28 07:24:14;;;;;;;23.60;9.13;;;;;;;;;;4999219;28;20053;-70
2023/07/28 07:26:41;;;;;;;19.25;8.23;;;;;;;;;;5011381;28;20045;-70
2023/07/28 07:29:09;;;;;;;21.38;8.20;;;;;;;;;;5019230;28;20053;-69
2023/07/28 07:31:36;;;;;;;22.02;9.73;;;;;;;;;;5019900;28;20207;-70
2023/07/28 07:34:04;;;;;;;28.15;9.52;;;;;;;;;;5005632;28;20076;-69
2023/07/28 07:36:32;;;;;;;23.52;9.25;;;;;;;;;;5021792;28;20053;-69
2023/07/28 07:38:59;;;;;;;21.08;8.60;;;;;;;;;;5020181;28;20057;-69
2023/07/28 07:41:26;;;;;;;19.35;8.02;;;;;;;;;;5018852;28;20069;-69
2023/07/28 07:43:54;;;;;;;18.65;8.07;;;;;;;;;;5006488;28;20114;-69
2023/07/28 07:46:22;;;;;;;19.27;8.10;;;;;;;;;;5018663;28;20062;-68
2023/07/28 07:48:49;;;;;;;18.53;7.47;;;;;;;;;;4951269;28;20069;-68
2023/07/28 07:51:18;;;;;;;20.13;7.75;;;;;;;;;;5010098;28;20053;-69
2023/07/28 07:53:45;;;;;;;26.23;10.40;;;;;;;;;;5002626;28;20112;-70
2023/07/28 07:56:12;;;;;;;17.67;9.25;;;;;;;;;;5018903;28;20132;-70
2023/07/28 07:58:39;;;;;;;23.23;10.95;;;;;;;;;;5012257;28;20057;-69
2023/07/28 08:01:06;;;;;;;20.88;9.40;;;;;;;;;;5018374;28;20057;-69
2023/07/28 08:03:35;;;;;;;21.00;7.95;;;;;;;;;;5014699;28;20184;-68
2023/07/28 08:06:03;;;;;;;17.70;8.38;;;;;;;;;;5019348;28;20049;-70
2023/07/28 08:08:32;;;;;;;20.77;8.10;;;;;;;;;;4999259;28;20077;-68
2023/07/28 08:10:59;;;;;;;22.98;8.98;;;;;;;;;;5017450;28;20077;-68
2023/07/28 08:13:27;;;;;;;20.63;7.97;;;;;;;;;;5018532;28;20057;-70
2023/07/28 08:15:54;;;;;;;;;;;;;;;;;;5013926;28;20061;-70
2023/07/28 08:18:21;;;;;;;18.73;7.20;;;;;;;;;;5011682;28;20053;-69
2023/07/28 08:20:48;;;;;;;19.23;7.82;;;;;;;;;;5016832;28;20131;-69
2023/07/28 08:23:15;;;;;;;14.35;7.10;;;;;;;;;;5020691;28;20061;-69
2023/07/28 08:25:43;;;;;;;21.02;8.30;;;;;;;;;;5011016;28;20058;-69
2023/07/28 08:28:10;;;;;;;16.48;7.50;;;;;;;;;;5011535;28;20144;-68
2023/07/28 08:30:39;;;;;;;17.60;8.23;;;;;;;;;;5012581;28;20049;-69
2023/07/28 08:33:10;;;;;;;20.10;10.07;;;;;;;;;;5013355;28;20067;-69
2023/07/28 08:35:39;;;;;;;20.23;7.65;;;;;;;;;;5019403;28;20061;-70
2023/07/28 08:38:08;;;;;;;16.05;7.80;;;;;;;;;;5023167;28;20041;-70
2023/07/28 08:40:35;;;;;;;19.52;7.70;;;;;;;;;;5013273;28;20068;-70
2023/07/28 08:43:03;;;;;;;18.63;7.60;;;;;;;;;;5012606;28;20053;-70
2023/07/28 08:45:31;;;;;;;16.92;7.15;;;;;;;;;;5017889;28;20061;-69
2023/07/28 08:47:58;;;;;;;15.48;6.45;;;;;;;;;;5017916;28;20057;-71
2023/07/28 08:50:24;;;;;;;19.35;7.47;;;;;;;;;;5009332;28;20115;-69
2023/07/28 08:52:51;;;;;;;20.23;8.25;;;;;;;;;;5015711;28;20064;-68
2023/07/28 08:55:18;;;;;;;15.98;7.25;;;;;;;;;;5034674;28;20132;-69
2023/07/28 08:57:47;;;;;;;15.82;6.95;;;;;;;;;;5017675;28;20051;-67
2023/07/28 09:00:18;;;;;;;22.38;8.02;;;;;;;;;;5035856;28;20046;-70
2023/07/28 09:02:45;;;;;;;19.67;7.60;;;;;;;;;;5025625;28;21014;-69
2023/07/28 09:05:19;;;;;;;15.63;6.68;;;;;;;;;;5043627;28;20063;-70
2023/07/28 09:07:46;;;;;;;18.65;7.18;;;;;;;;;;5045856;28;20064;-70
2023/07/28 09:10:17;;;;;;;16.73;6.95;;;;;;;;;;5016761;28;20053;-70
2023/07/28 09:12:48;;;;;;;13.75;6.65;;;;;;;;;;5011376;28;20060;-70
2023/07/28 09:15:17;;;;;;;18.88;6.63;;;;;;;;;;5017513;28;20115;-69
2023/07/28 09:17:45;;;;;;;13.77;6.70;;;;;;;;;;5034756;28;20077;-69
2023/07/28 09:20:15;;;;;;;19.73;6.40;;;;;;;;;;5023717;28;20080;-68
2023/07/28 09:22:43;;;;;;;14.57;6.95;;;;;;;;;;5006375;28;20057;-69
2023/07/28 09:25:14;;;;;;;15.15;6.28;;;;;;;;;;5016912;28;20063;-68
2023/07/28 09:27:42;;;;;;;15.40;6.47;;;;;;;;;;5033581;28;20057;-68
2023/07/28 09:30:09;;;;;;;16.63;6.90;;;;;;;;;;5018189;28;20061;-68
2023/07/28 09:32:39;;;;;;;15.00;6.88;;;;;;;;;;5010653;28;20300;-69
2023/07/28 09:35:10;;;;;;;19.38;7.28;;;;;;;;;;5017047;28;20068;-68
2023/07/28 09:37:42;;;;;;;28.63;12.95;;;;;;;;;;5016822;28;20053;-69
2023/07/28 09:40:14;;;;;;;22.85;10.60;;;;;;;;;;4996616;28;20144;-69
2023/07/28 09:42:41;;;;;;;14.35;6.63;;;;;;;;;;5007607;28;20068;-69
2023/07/28 09:45:10;;;;;;;13.27;5.88;;;;;;;;;;5019439;28;20057;-70
2023/07/28 09:47:39;;;;;;;14.45;6.32;;;;;;;;;;5007490;28;20069;-69
2023/07/28 09:50:08;;;;;;;18.20;5.80;;;;;;;;;;5025826;28;20037;-68
2023/07/28 09:52:39;;;;;;;14.10;6.68;;;;;;;;;;5010372;28;20046;-69
2023/07/28 09:55:10;;;;;;;16.63;6.65;;;;;;;;;;5021186;28;20057;-70
2023/07/28 09:57:40;;;;;;;15.20;7.13;;;;;;;;;;5021017;28;20141;-70
2023/07/28 10:00:11;;;;;;;14.85;6.38;;;;;;;;;;5037048;28;20065;-71
2023/07/28 10:02:40;;;;;;;14.98;6.82;;;;;;;;;;5011140;28;20041;-70
2023/07/28 10:05:11;;;;;;;16.40;6.80;;;;;;;;;;5023065;28;20133;-70
2023/07/28 10:07:41;;;;;;;15.57;6.90;;;;;;;;;;5021502;28;20037;-70
2023/07/28 10:10:13;;;;;;;19.05;7.57;;;;;;;;;;5020737;28;20049;-70
2023/07/28 10:12:44;;;;;;;15.30;6.53;;;;;;;;;;4959394;28;20055;-67
2023/07/28 10:15:15;;;;;;;14.38;6.75;;;;;;;;;;4993995;28;20405;-68
2023/07/28 10:17:47;;;;;;;12.30;6.05;;;;;;;;;;5001791;28;20050;-69
2023/07/28 10:20:39;;;;;;;14.43;5.95;;;;;;;;;;5000924;28;20128;-70
2023/07/28 10:23:14;;;;;;;10.85;5.32;;;;;;;;;;4991341;28;20045;-71
2023/07/28 10:25:43;;;;;;;16.40;6.50;;;;;;;;;;5023036;28;20049;-68
2023/07/28 10:28:28;;;;;;;14.70;7.32;;;;;;;;;;5020551;28;20064;-70
2023/07/28 10:30:56;;;;;;;28.85;13.77;;;;;;;;;;5027730;28;20108;-71
2023/07/28 10:33:35;;;;;;;23.27;10.57;;;;;;;;;;4998300;28;20061;-72
2023/07/28 10:36:13;;;;;;;32.35;16.45;;;;;;;;;;5017161;28;20062;-70
2023/07/28 10:38:40;;;;;;;14.43;6.90;;;;;;;;;;5003288;28;20053;-70
2023/07/28 10:41:14;;;;;;;15.50;7.30;;;;;;;;;;5022922;28;20071;-70
2023/07/28 10:43:43;;;;;;;14.85;7.43;;;;;;;;;;5015060;28;20057;-70
2023/07/28 10:46:12;;;;;;;14.32;6.18;;;;;;;;;;5037452;28;20049;-69
2023/07/28 10:48:50;;;;;;;13.23;5.90;;;;;;;;;;5019762;28;20062;-71
2023/07/28 10:51:24;;;;;;;16.13;7.00;;;;;;;;;;5021321;28;20053;-70
2023/07/28 10:53:54;;;;;;;19.55;8.10;;;;;;;;;;4979616;28;20120;-69
2023/07/28 10:56:31;;;;;;;30.50;11.95;;;;;;;;;;5013811;28;20064;-69
2023/07/28 10:59:00;;;;;;;16.15;7.70;;;;;;;;;;5023869;28;20060;-69
2023/07/28 11:01:33;;;;;;;;;;;;;;;;;;5065319;28;20053;-70
2023/07/28 11:04:12;;;;;;;15.40;6.50;;;;;;;;;;5004563;28;19925;-71
2023/07/28 11:06:42;;;;;;;15.43;6.88;;;;;;;;;;5026472;28;20049;-72
2023/07/28 11:09:09;;;;;;;15.07;6.97;;;;;;;;;;5021838;28;20164;-70
2023/07/28 11:11:37;;;;;;;17.00;7.07;;;;;;;;;;5044802;28;20063;-71
2023/07/28 11:14:06;;;;;;;16.25;6.95;;;;;;;;;;5023500;28;20144;-71
2023/07/28 11:16:34;;;;;;;14.13;7.10;;;;;;;;;;5035492;28;20064;-71
2023/07/28 11:19:05;;;;;;;14.30;6.78;;;;;;;;;;5061709;28;20075;-69
2023/07/28 11:21:37;;;;;;;14.43;7.43;;;;;;;;;;5048286;28;20057;-69
2023/07/28 11:24:05;;;;;;;15.82;7.60;;;;;;;;;;5045137;28;20060;-69
2023/07/28 11:26:46;;;;;;;18.65;8.18;;;;;;;;;;5052021;28;20056;-69
2023/07/28 11:29:13;;;;;;;15.75;7.28;;;;;;;;;;5042143;28;20053;-69
2023/07/28 11:31:42;;;;;;;15.87;7.97;;;;;;;;;;5043166;28;20274;-69
2023/07/28 11:34:14;;;;;;;17.55;8.15;;;;;;;;;;4990260;28;20071;-70
2023/07/28 11:36:42;;;;;;;17.88;7.88;;;;;;;;;;5033688;28;20328;-70
2023/07/28 11:39:10;;;;;;;;;;;;;;;;;;5020745;28;20059;-69
2023/07/28 11:41:38;;;;;;;16.15;8.20;;;;;;;;;;5055699;28;19935;-69
2023/07/28 11:44:05;;;;;;;15.15;7.38;;;;;;;;;;5055393;28;20056;-69
2023/07/28 11:46:36;;;;;;;16.40;7.60;;;;;;;;;;5078280;28;20067;-69
2023/07/28 11:49:11;;;;;;;16.77;7.60;;;;;;;;;;5062633;28;20304;-70
2023/07/28 11:51:43;;;;;;;17.33;8.10;;;;;;;;;;5080990;28;20085;-69
2023/07/28 11:54:15;;;;;;;17.23;7.57;;;;;;;;;;5057042;28;20056;-70
2023/07/28 11:56:45;;;;;;;13.50;7.20;;;;;;;;;;5072277;28;20105;-69
2023/07/28 11:59:15;;;;;;;17.60;7.15;;;;;;;;;;5032308;28;20073;-70
2023/07/28 12:01:56;;;;;;;14.25;7.35;;;;;;;;;;5022623;28;20057;-69
2023/07/28 12:04:25;;;;;;;18.23;7.50;;;;;;;;;;5022352;28;20087;-70
2023/07/28 12:07:17;;;;;;;18.05;6.70;;;;;;;;;;5042751;28;20052;-70
2023/07/28 12:09:58;;;;;;;17.88;6.72;;;;;;;;;;5014850;28;20063;-70
2023/07/28 12:12:28;;;;;;;13.52;7.10;;;;;;;;;;5017119;28;20053;-70
2023/07/28 12:14:55;;;;;;;17.67;7.93;;;;;;;;;;5043466;28;20060;-70
2023/07/28 12:17:25;;;;;;;18.92;9.45;;;;;;;;;;5041548;28;20049;-71
2023/07/28 12:20:10;;;;;;;24.63;12.88;;;;;;;;;;5042472;28;20053;-70
2023/07/28 12:22:40;;;;;;;17.13;7.88;;;;;;;;;;5009174;28;20058;-70
2023/07/28 12:25:11;;;;;;;16.75;7.85;;;;;;;;;;5020525;28;20084;-70
2023/07/28 12:27:39;;;;;;;16.27;7.65;;;;;;;;;;5027246;28;20065;-70
2023/07/28 12:30:09;;;;;;;12.30;6.32;;;;;;;;;;5039774;28;20065;-69
2023/07/28 12:32:36;;;;;;;12.68;6.15;;;;;;;;;;4998775;28;20044;-70
2023/07/28 12:35:03;;;;;;;12.30;7.00;;;;;;;;;;5048917;28;20061;-69
2023/07/28 12:37:30;;;;;;;13.80;6.80;;;;;;;;;;5005031;28;20049;-70
2023/07/28 12:39:57;;;;;;;10.90;5.53;;;;;;;;;;5014749;28;20145;-70
2023/07/28 12:42:28;;;;;;;10.52;5.07;;;;;;;;;;5038824;28;20118;-70
2023/07/28 12:44:57;;;;;;;13.55;5.47;;;;;;;;;;5018696;28;20118;-70
2023/07/28 12:47:24;;;;;;;11.07;5.00;;;;;;;;;;5024490;28;20041;-70
2023/07/28 12:49:51;;;;;;;10.93;4.57;;;;;;;;;;5020996;28;20052;-70
2023/07/28 12:52:20;;;;;;;9.38;4.78;;;;;;;;;;5038583;28;20052;-70
2023/07/28 12:54:48;;;;;;;10.73;5.07;;;;;;;;;;5015178;28;20072;-70
2023/07/28 12:57:14;;;;;;;11.98;5.35;;;;;;;;;;5044925;28;20171;-69
2023/07/28 12:59:46;;;;;;;10.93;5.25;;;;;;;;;;5020521;28;20057;-70
2023/07/28 13:02:19;;;;;;;11.25;5.75;;;;;;;;;;5051193;28;20053;-71
2023/07/28 13:04:48;;;;;;;14.85;6.32;;;;;;;;;;5016934;28;20308;-70
2023/07/28 13:07:15;;;;;;;13.45;5.63;;;;;;;;;;5001472;28;20061;-70
2023/07/28 13:09:42;;;;;;;11.27;5.70;;;;;;;;;;5016879;28;20146;-70
2023/07/28 13:12:12;;;;;;;11.00;5.63;;;;;;;;;;5048579;28;20049;-71
2023/07/28 13:14:39;;;;;;;11.27;5.35;;;;;;;;;;5033838;28;20073;-70
2023/07/28 13:17:07;;;;;;;10.57;5.15;;;;;;;;;;5039979;28;20068;-71
2023/07/28 13:19:34;;;;;;;13.68;4.82;;;;;;;;;;5022048;28;20052;-70
2023/07/28 13:22:05;;;;;;;11.65;5.03;;;;;;;;;;5048572;28;20068;-70
2023/07/28 13:24:32;;;;;;;7.72;4.05;;;;;;;;;;5007875;28;20057;-71
2023/07/28 13:26:59;;;;;;;8.32;4.60;;;;;;;;;;5026297;28;20060;-70
2023/07/28 13:29:28;;;;;;;8.27;4.20;;;;;;;;;;5024351;28;20064;-71
2023/07/28 13:31:59;;;;;;;9.18;4.70;;;;;;;;;;5022187;28;20069;-70
2023/07/28 13:34:28;;;;;;;9.63;4.32;;;;;;;;;;4999440;28;20053;-70
2023/07/28 13:36:55;;;;;;;11.85;6.45;;;;;;;;;;5025930;28;20072;-72
2023/07/28 13:39:22;;;;;;;13.75;6.47;;;;;;;;;;5024898;28;20060;-72
2023/07/28 13:41:49;;;;;;;9.85;5.20;;;;;;;;;;5026036;28;20092;-70
2023/07/28 13:44:17;;;;;;;9.52;4.30;;;;;;;;;;5037859;28;20129;-72
2023/07/28 13:46:46;;;;;;;10.63;4.53;;;;;;;;;;5019740;28;22003;-71
2023/07/28 13:49:16;;;;;;;9.60;4.07;;;;;;;;;;5024743;28;20080;-70
2023/07/28 13:51:44;;;;;;;6.55;3.60;;;;;;;;;;5024702;28;20053;-72
2023/07/28 13:54:12;;;;;;;7.70;3.92;;;;;;;;;;4990361;28;20059;-71
2023/07/28 13:56:39;;;;;;;12.77;4.40;;;;;;;;;;5018165;28;20191;-70
2023/07/28 13:59:06;;;;;;;9.32;3.75;;;;;;;;;;5056322;28;20064;-73
2023/07/28 14:01:33;;;;;;;8.23;3.85;;;;;;;;;;5002859;28;20057;-71
2023/07/28 14:04:04;;;;;;;8.55;3.53;;;;;;;;;;5000592;28;20054;-70
2023/07/28 14:06:31;;;;;;;8.63;3.90;;;;;;;;;;5025143;28;20057;-69
2023/07/28 14:09:01;;;;;;;10.98;3.72;;;;;;;;;;5001776;28;20230;-69
2023/07/28 14:11:27;;;;;;;8.57;3.38;;;;;;;;;;5012805;28;20117;-70
2023/07/28 14:13:54;;;;;;;6.05;2.95;;;;;;;;;;5035832;28;20041;-71
2023/07/28 14:16:23;;;;;;;8.15;2.88;;;;;;;;;;5028515;28;20063;-72
2023/07/28 14:18:56;;;;;;;7.60;3.20;;;;;;;;;;5021473;28;20045;-69
2023/07/28 14:21:25;;;;;;;6.78;2.75;;;;;;;;;;5027247;28;20063;-70
2023/07/28 14:23:54;;;;;;;12.77;5.45;;;;;;;;;;5019440;28;20049;-71
2023/07/28 14:26:23;;;;;;;13.45;4.43;;;;;;;;;;5031205;28;20080;-70
2023/07/28 14:28:53;;;;;;;9.23;4.32;;;;;;;;;;5025047;28;20175;-69
2023/07/28 14:31:20;;;;;;;9.85;3.60;;;;;;;;;;5032225;28;20070;-68
2023/07/28 14:33:47;;;;;;;18.33;10.82;;;;;;;;;;5012448;28;20064;-70
2023/07/28 14:36:14;;;;;;;10.07;4.28;;;;;;;;;;5044208;28;20057;-71
2023/07/28 14:38:41;;;;;;;20.08;11.02;;;;;;;;;;5019737;28;20049;-69
2023/07/28 14:41:12;;;;;;;20.58;11.52;;;;;;;;;;5043011;28;20049;-70
2023/07/28 14:43:40;;;;;;;9.98;3.63;;;;;;;;;;5028731;28;20071;-71
2023/07/28 14:46:09;;;;;;;;;;;;;;;;;;5026924;28;20059;-69
2023/07/28 14:48:37;;;;;;;6.95;3.30;;;;;;;;;;5033685;28;19924;-69
2023/07/28 14:51:03;;;;;;;7.88;3.40;;;;;;;;;;5042886;28;20056;-69
2023/07/28 14:53:35;;;;;;;6.55;2.97;;;;;;;;;;5008700;28;20080;-68
2023/07/28 14:56:08;;;;;;;7.03;3.15;;;;;;;;;;5029130;28;20053;-69
2023/07/28 14:58:35;;;;;;;7.10;2.85;;;;;;;;;;5029860;28;20060;-68
2023/07/28 15:01:05;;;;;;;5.60;2.70;;;;;;;;;;5043103;28;20063;-70
2023/07/28 15:03:34;;;;;;;6.07;2.85;;;;;;;;;;4997980;28;20104;-68
2023/07/28 15:06:02;;;;;;;7.57;3.08;;;;;;;;;;5041950;28;20060;-70
2023/07/28 15:08:30;;;;;;;9.23;2.63;;;;;;;;;;5044739;28;20139;-69
2023/07/28 15:10:58;;;;;;;6.35;2.78;;;;;;;;;;5068867;28;20192;-68
2023/07/28 15:13:25;;;;;;;7.88;3.63;;;;;;;;;;5022341;28;20076;-71
2023/07/28 15:15:52;;;;;;;7.20;3.08;;;;;;;;;;5042704;28;20110;-69
2023/07/28 15:18:21;;;;;;;7.65;3.70;;;;;;;;;;5041717;28;20111;-69
2023/07/28 15:20:48;;;;;;;7.60;3.53;;;;;;;;;;5039474;28;20056;-70
2023/07/28 15:23:16;;;;;;;10.87;3.77;;;;;;;;;;5040548;28;20063;-69
2023/07/28 15:25:45;;;;;;;10.00;4.00;;;;;;;;;;5045337;28;20136;-69
2023/07/28 15:28:12;;;;;;;8.50;4.05;;;;;;;;;;5060873;28;20106;-70
2023/07/28 15:30:40;;;;;;;7.38;3.67;;;;;;;;;;5053486;28;20056;-70
2023/07/28 15:33:07;;;;;;;9.50;3.83;;;;;;;;;;5041656;28;20080;-70
2023/07/28 15:35:36;;;;;;;9.17;4.47;;;;;;;;;;5060508;28;20068;-69
2023/07/28 15:38:03;;;;;;;7.07;3.75;;;;;;;;;;5060977;28;20133;-70
2023/07/28 15:40:31;;;;;;;7.72;3.30;;;;;;;;;;5053679;28;20044;-69
2023/07/28 15:42:58;;;;;;;;;;;;;;;;;;5058287;28;20076;-69
2023/07/28 15:45:25;;;;;;;6.65;4.03;;;;;;;;;;5060699;28;19948;-69
2023/07/28 15:47:52;;;;;;;7.20;3.40;;;;;;;;;;5045882;28;20052;-69
2023/07/28 15:50:20;;;;;;;6.65;3.22;;;;;;;;;;5056899;28;20052;-69
2023/07/28 15:52:48;;;;;;;6.35;3.22;;;;;;;;;;5036025;28;20056;-70
2023/07/28 15:55:15;;;;;;;7.60;3.30;;;;;;;;;;5057571;28;20055;-69
2023/07/28 15:57:42;;;;;;;7.25;3.13;;;;;;;;;;5061268;28;20062;-69
2023/07/28 16:00:10;;;;;;;6.70;3.47;;;;;;;;;;5042117;28;20052;-70
2023/07/28 16:02:37;;;;;;;8.18;3.60;;;;;;;;;;5055739;28;20078;-70
2023/07/28 16:05:10;;;;;;;8.50;3.42;;;;;;;;;;5012965;28;20086;-69
2023/07/28 16:07:40;;;;;;;9.20;3.90;;;;;;;;;;5043094;28;20045;-69
2023/07/28 16:10:10;;;;;;;6.35;3.35;;;;;;;;;;5059003;28;20066;-70
2023/07/28 16:12:38;;;;;;;8.70;3.40;;;;;;;;;;5032694;28;20064;-70
2023/07/28 16:15:05;;;;;;;8.95;4.03;;;;;;;;;;5023877;28;20064;-71
2023/07/28 16:17:32;;;;;;;9.30;3.85;;;;;;;;;;5054759;28;20056;-70
2023/07/28 16:20:06;;;;;;;7.65;3.90;;;;;;;;;;5044125;28;20057;-72
2023/07/28 16:22:47;;;;;;;7.97;3.58;;;;;;;;;;5043267;28;20064;-69
2023/07/28 16:25:16;;;;;;;7.53;3.40;;;;;;;;;;5026104;28;20052;-70
2023/07/28 16:27:43;;;;;;;6.80;3.10;;;;;;;;;;5051319;28;20066;-69
2023/07/28 16:30:13;;;;;;;6.07;3.08;;;;;;;;;;5054088;28;20147;-69
2023/07/28 16:32:40;;;;;;;8.68;3.05;;;;;;;;;;5023661;28;20048;-70
2023/07/28 16:35:09;;;;;;;5.35;2.72;;;;;;;;;;5061273;28;20080;-69
2023/07/28 16:37:38;;;;;;;8.77;3.45;;;;;;;;;;5080628;28;20078;-70
2023/07/28 16:40:10;;;;;;;13.70;7.07;;;;;;;;;;5059018;28;20056;-70
2023/07/28 16:42:38;;;;;;;10.93;3.85;;;;;;;;;;5038734;28;20175;-70
2023/07/28 16:45:06;;;;;;;6.47;2.92;;;;;;;;;;5060548;28;20060;-70
2023/07/28 16:47:36;;;;;;;7.28;3.50;;;;;;;;;;5048071;28;20055;-68
2023/07/28 16:50:04;;;;;;;6.80;3.00;;;;;;;;;;5045189;28;20135;-69
2023/07/28 16:52:31;;;;;;;10.00;3.30;;;;;;;;;;5059265;28;20056;-70
2023/07/28 16:54:58;;;;;;;6.53;3.47;;;;;;;;;;5039127;28;20303;-69
2023/07/28 16:57:25;;;;;;;8.57;3.08;;;;;;;;;;5043182;28;20057;-69
2023/07/28 16:59:55;;;;;;;9.38;3.63;;;;;;;;;;5042122;28;20061;-70
2023/07/28 17:02:25;;;;;;;7.13;3.13;;;;;;;;;;5036846;28;20152;-70
2023/07/28 17:04:52;;;;;;;6.85;3.33;;;;;;;;;;5033532;28;20053;-70
2023/07/28 17:07:19;;;;;;;5.72;3.03;;;;;;;;;;5060243;28;20078;-68
2023/07/28 17:09:57;;;;;;;6.63;3.22;;;;;;;;;;5061600;28;20053;-69
2023/07/28 17:12:25;;;;;;;5.38;3.00;;;;;;;;;;5057985;28;20059;-70
2023/07/28 17:14:53;;;;;;;5.40;2.35;;;;;;;;;;5022031;28;20140;-70
2023/07/28 17:17:20;;;;;;;6.30;3.05;;;;;;;;;;5039706;28;20055;-69
2023/07/28 17:19:49;;;;;;;8.13;4.40;;;;;;;;;;5040046;28;20143;-70
2023/07/28 17:22:16;;;;;;;18.75;10.68;;;;;;;;;;5034994;28;20056;-70
2023/07/28 17:24:43;;;;;;;13.93;6.57;;;;;;;;;;5027642;28;20077;-70
2023/07/28 17:27:10;;;;;;;6.15;2.38;;;;;;;;;;5024041;28;20160;-69
2023/07/28 17:29:37;;;;;;;4.03;2.00;;;;;;;;;;5024949;28;20053;-72
2023/07/28 17:32:06;;;;;;;8.85;2.13;;;;;;;;;;5040093;28;20100;-71
2023/07/28 17:34:36;;;;;;;2.83;1.67;;;;;;;;;;5034592;28;20068;-78
2023/07/28 17:37:03;;;;;;;6.47;1.98;;;;;;;;;;5058134;28;20165;-73
2023/07/28 17:39:33;;;;;;;3.53;1.70;;;;;;;;;;5060497;28;20039;-71
2023/07/28 17:42:01;;;;;;;5.40;1.80;;;;;;;;;;5041744;28;20045;-71
2023/07/28 17:44:28;;;;;;;5.38;2.13;;;;;;;;;;4961231;28;20048;-72
2023/07/28 17:46:55;;;;;;;3.38;1.75;;;;;;;;;;5044453;28;20072;-71
2023/07/28 17:49:25;;;;;;;5.15;1.77;;;;;;;;;;5053168;28;20059;-73
2023/07/28 17:51:52;;;;;;;4.00;1.75;;;;;;;;;;5051049;28;20060;-73
2023/07/28 17:54:20;;;;;;;7.30;1.90;;;;;;;;;;5013885;28;20067;-71
2023/07/28 17:56:47;;;;;;;4.53;2.05;;;;;;;;;;5054139;28;20060;-72
2023/07/28 17:59:14;;;;;;;5.40;2.05;;;;;;;;;;5046825;28;20060;-73
2023/07/28 18:01:41;;;;;;;7.43;2.25;;;;;;;;;;5041740;28;20048;-71
2023/07/28 18:04:08;;;;;;;6.60;1.77;;;;;;;;;;5040151;28;20182;-73
2023/07/28 18:06:37;;;;;;;3.40;1.73;;;;;;;;;;5043822;28;20067;-71
2023/07/28 18:09:05;;;;;;;4.47;2.00;;;;;;;;;;5051339;28;20083;-72
2023/07/28 18:11:32;;;;;;;;;;;;;;;;;;5048279;28;20243;-71
2023/07/28 18:13:59;;;;;;;7.32;3.45;;;;;;;;;;5049305;28;19927;-69
2023/07/28 18:16:26;;;;;;;8.43;3.15;;;;;;;;;;5039167;28;20052;-70
2023/07/28 18:18:53;;;;;;;12.00;7.00;;;;;;;;;;5064786;28;20090;-69
2023/07/28 18:21:22;;;;;;;8.85;4.55;;;;;;;;;;5045506;28;20107;-69
2023/07/28 18:23:51;;;;;;;;;;;;;;;;;;5050335;28;20063;-70
2023/07/28 18:26:19;;;;;;;5.53;3.03;;;;;;;;;;5063282;28;19920;-70
2023/07/28 18:28:46;;;;;;;5.95;2.80;;;;;;;;;;5038953;28;20148;-68
2023/07/28 18:31:16;;;;;;;5.60;2.85;;;;;;;;;;5064688;28;20056;-69
2023/07/28 18:33:43;;;;;;;4.53;1.98;;;;;;;;;;5051553;28;20127;-69
2023/07/28 18:36:10;;;;;;;5.25;2.33;;;;;;;;;;5063704;28;20049;-69
2023/07/28 18:38:37;;;;;;;5.95;3.08;;;;;;;;;;5056050;28;20285;-69
2023/07/28 18:41:08;;;;;;;4.15;2.20;;;;;;;;;;5046770;28;20110;-69
2023/07/28 18:43:35;;;;;;;4.85;2.30;;;;;;;;;;5038821;28;20109;-68
2023/07/28 18:46:02;;;;;;;5.25;2.10;;;;;;;;;;5061450;28;20052;-68
2023/07/28 18:48:29;;;;;;;6.03;2.25;;;;;;;;;;5057812;28;20049;-69
2023/07/28 18:50:56;;;;;;;4.28;1.98;;;;;;;;;;5064546;28;20070;-69
2023/07/28 18:53:24;;;;;;;4.45;2.20;;;;;;;;;;5041300;28;20057;-69
2023/07/28 18:55:51;;;;;;;5.15;2.05;;;;;;;;;;5064071;28;20061;-67
2023/07/28 18:58:20;;;;;;;4.85;2.30;;;;;;;;;;5058690;28;20053;-68
2023/07/28 19:00:48;;;;;;;6.45;1.98;;;;;;;;;;5020809;28;20068;-69
2023/07/28 19:03:15;;;;;;;6.63;2.37;;;;;;;;;;5023231;28;20057;-68
2023/07/28 19:05:41;;;;;;;21.40;10.55;;;;;;;;;;5002674;28;20084;-69
2023/07/28 19:08:09;;;;;;;26.38;14.48;;;;;;;;;;5005560;28;20080;-68
2023/07/28 19:10:38;;;;;;;5.40;2.78;;;;;;;;;;5012775;28;20060;-68
2023/07/28 19:13:04;;;;;;;9.90;5.10;;;;;;;;;;5041662;28;20053;-68
2023/07/28 19:15:33;;;;;;;9.98;3.80;;;;;;;;;;5040198;28;20049;-67
2023/07/28 19:18:00;;;;;;;4.68;2.20;;;;;;;;;;5030810;28;20080;-67
2023/07/28 19:20:27;;;;;;;4.45;2.10;;;;;;;;;;5036709;28;20060;-69
2023/07/28 19:22:54;;;;;;;5.68;2.30;;;;;;;;;;5024564;28;20067;-68
2023/07/28 19:25:23;;;;;;;3.53;1.73;;;;;;;;;;5004797;28;20049;-69
2023/07/28 19:27:50;;;;;;;3.08;1.80;;;;;;;;;;5024136;28;20057;-68
2023/07/28 19:30:22;;;;;;;4.20;1.93;;;;;;;;;;5005671;28;20118;-69
2023/07/28 19:32:50;;;;;;;4.35;2.22;;;;;;;;;;5003103;28;23146;-68
2023/07/28 19:35:17;;;;;;;5.90;2.03;;;;;;;;;;5040197;28;20064;-68
2023/07/28 19:37:44;;;;;;;4.07;1.70;;;;;;;;;;5025720;28;20053;-68